createdAt,value
2023-04-06T00:02:20.574Z,100196.03
2023-04-06T00:06:23.897Z,100201.06
2023-04-06T00:10:27.605Z,100195.66
2023-04-06T00:14:32.215Z,100186.91
2023-04-06T00:18:35.390Z,100181.59
2023-04-06T00:22:38.703Z,100192.84
2023-04-06T00:26:41.949Z,100192.66
2023-04-06T00:30:46.684Z,100190.84
2023-04-06T00:34:49.945Z,100192.59
2023-04-06T00:38:53.306Z,100183.72
2023-04-06T00:42:56.780Z,100183.66
2023-04-06T00:47:01.773Z,100181.13
2023-04-06T00:51:05.751Z,100176.81
2023-04-06T00:55:09.861Z,100178.59
2023-04-06T00:59:17.859Z,100174.16
2023-04-06T01:03:22.728Z,100172.25
2023-04-06T01:07:26.165Z,100173.16
2023-04-06T01:11:41.667Z,100175.69
2023-04-06T01:15:49.364Z,100172.84
2023-04-06T01:19:59.998Z,100170.00
2023-04-06T01:24:10.442Z,100165.56
2023-04-06T01:28:33.869Z,100165.38
2023-04-06T01:32:45.928Z,100161.00
2023-04-06T01:36:51.920Z,100159.28
2023-04-06T01:41:03.003Z,100154.69
2023-04-06T01:45:13.010Z,100152.94
2023-04-06T01:49:17.673Z,100149.34
2023-04-06T01:53:25.454Z,100153.41
2023-04-06T01:57:34.525Z,100160.38
2023-04-06T02:01:47.173Z,100156.84
2023-04-06T02:05:50.561Z,100155.94
2023-04-06T02:10:13.948Z,100156.00
2023-04-06T02:14:18.981Z,100156.00
2023-04-06T02:18:28.658Z,100153.41
2023-04-06T02:22:32.170Z,100149.88
2023-04-06T02:26:36.406Z,100152.41
2023-04-06T02:30:41.487Z,100141.00
2023-04-06T02:34:44.745Z,100142.50
2023-04-06T02:38:48.047Z,100144.03
2023-04-06T02:42:51.641Z,100142.16
2023-04-06T02:47:04.265Z,100152.41
2023-04-06T02:51:08.174Z,100136.59
2023-04-06T02:55:12.711Z,100148.59
2023-04-06T02:59:16.145Z,100143.16
2023-04-06T03:03:28.011Z,100141.13
2023-04-06T03:07:32.598Z,100146.13
2023-04-06T03:11:35.870Z,100144.31
2023-04-06T03:15:39.132Z,100151.88
2023-04-06T03:19:51.684Z,100148.28
2023-04-06T03:23:55.592Z,100152.53
2023-04-06T03:27:58.902Z,100152.38
2023-04-06T03:32:03.078Z,100163.50
2023-04-06T03:36:17.228Z,100156.50
2023-04-06T03:40:21.277Z,100160.81
2023-04-06T03:44:24.502Z,100159.09
2023-04-06T03:48:27.726Z,100159.91
2023-04-06T03:52:32.633Z,100163.47
2023-04-06T03:56:36.123Z,100164.41
2023-04-06T04:00:39.743Z,100172.28
2023-04-06T04:04:43.894Z,100178.22
2023-04-06T04:08:48.520Z,100170.28
2023-04-06T04:12:52.187Z,100165.78
2023-04-06T04:16:55.574Z,100169.19
2023-04-06T04:20:58.758Z,100170.84
2023-04-06T04:25:03.500Z,100172.47
2023-04-06T04:29:09.777Z,100174.22
2023-04-06T04:33:14.515Z,100175.88
2023-04-06T04:37:18.964Z,100187.19
2023-04-06T04:41:29.968Z,100186.16
2023-04-06T04:45:34.168Z,100179.19
2023-04-06T04:49:47.448Z,100186.28
2023-04-06T04:53:57.550Z,100183.56
2023-04-06T04:58:06.743Z,100182.59
2023-04-06T05:02:27.294Z,100173.84
2023-04-06T05:06:49.562Z,100179.13
2023-04-06T05:10:54.505Z,100174.00
2023-04-06T05:15:00.502Z,100170.69
2023-04-06T05:19:04.090Z,100180.19
2023-04-06T05:23:15.576Z,100179.44
2023-04-06T05:27:19.885Z,100185.50
2023-04-06T05:31:26.117Z,100177.72
2023-04-06T05:35:29.853Z,100179.50
2023-04-06T05:39:38.021Z,100175.19
2023-04-06T05:43:41.315Z,100179.69
2023-04-06T05:47:46.453Z,100185.16
2023-04-06T05:51:58.958Z,100190.06
2023-04-06T05:56:03.306Z,100188.56
2023-04-06T06:00:10.038Z,100191.31
2023-04-06T06:04:21.628Z,100194.13
2023-04-06T06:08:28.712Z,100192.53
2023-04-06T06:12:33.366Z,100197.09
2023-04-06T06:16:37.651Z,100191.22
2023-04-06T06:20:44.672Z,100190.06
2023-04-06T06:24:47.943Z,100190.44
2023-04-06T06:28:54.239Z,100197.91
2023-04-06T06:32:57.978Z,100188.91
2023-04-06T06:37:03.861Z,100190.13
2023-04-06T06:41:07.493Z,100184.56
2023-04-06T06:45:13.181Z,100186.44
2023-04-06T06:49:17.239Z,100180.75
2023-04-06T06:53:21.987Z,100184.63
2023-04-06T06:57:25.793Z,100181.66
2023-04-06T07:01:30.280Z,100181.28
2023-04-06T07:05:34.848Z,100177.63
2023-04-06T07:09:39.503Z,100179.22
2023-04-06T07:13:44.356Z,100176.97
2023-04-06T07:17:47.796Z,100177.03
2023-04-06T07:21:51.587Z,100180.66
2023-04-06T07:25:56.382Z,100169.94
2023-04-06T07:29:59.651Z,100171.06
2023-04-06T07:34:03.668Z,100169.50
2023-04-06T07:38:07.077Z,100171.53
2023-04-06T07:42:12.992Z,100163.72
2023-04-06T07:46:16.728Z,100176.97
2023-04-06T07:50:20.314Z,100171.38
2023-04-06T07:54:24.602Z,100162.91
2023-04-06T07:58:29.539Z,100169.34
2023-04-06T08:02:33.693Z,100167.75
2023-04-06T08:06:37.508Z,100159.72
2023-04-06T08:10:40.900Z,100159.72
2023-04-06T08:14:45.577Z,100161.75
2023-04-06T08:18:48.828Z,100152.63
2023-04-06T08:22:53.660Z,100157.91
2023-04-06T08:26:57.058Z,100152.81
2023-04-06T08:31:01.628Z,100151.13
2023-04-06T08:35:05.054Z,100158.00
2023-04-06T08:39:08.265Z,100157.41
2023-04-06T08:43:14.995Z,100147.13
2023-04-06T08:47:20.553Z,100144.69
2023-04-06T08:51:26.384Z,100131.94
2023-04-06T08:55:29.829Z,100140.31
2023-04-06T08:59:34.147Z,100133.00
2023-04-06T09:03:40.874Z,100118.31
2023-04-06T09:07:44.471Z,100121.19
2023-04-06T09:11:49.043Z,100107.53
2023-04-06T09:16:01.379Z,100103.19
2023-04-06T09:20:06.777Z,100105.06
2023-04-06T09:24:11.421Z,100093.16
2023-04-06T09:28:15.388Z,100091.50
2023-04-06T09:32:18.784Z,100088.28
2023-04-06T09:36:32.413Z,100074.56
2023-04-06T09:40:35.680Z,100067.53
2023-04-06T09:44:38.886Z,100068.53
2023-04-06T09:48:42.266Z,100057.69
2023-04-06T09:52:50.941Z,100055.13
2023-04-06T09:56:59.710Z,100048.19
2023-04-06T10:01:09.229Z,100040.38
2023-04-06T10:05:34.589Z,100041.16
2023-04-06T10:09:39.782Z,100043.56
2023-04-06T10:13:43.386Z,100036.66
2023-04-06T10:17:47.038Z,100029.81
2023-04-06T10:21:56.954Z,100016.06
2023-04-06T10:26:03.127Z,100016.13
2023-04-06T10:30:07.933Z,100012.59
2023-04-06T10:34:11.216Z,100001.34
2023-04-06T10:38:15.498Z,100005.72
2023-04-06T10:42:20.289Z,100003.09
2023-04-06T10:46:27.542Z,99999.78
2023-04-06T10:50:32.043Z,99993.84
2023-04-06T10:54:35.587Z,100001.88
2023-04-06T10:58:40.963Z,99987.22
2023-04-06T11:02:44.362Z,99994.31
2023-04-06T11:06:50.162Z,99974.25
2023-04-06T11:10:53.338Z,99966.44
2023-04-06T11:15:03.113Z,99975.13
2023-04-06T11:19:08.026Z,99979.50
2023-04-06T11:23:11.218Z,99960.44
2023-04-06T11:27:16.121Z,99953.66
2023-04-06T11:31:20.784Z,99942.31
2023-04-06T11:35:26.055Z,99951.88
2023-04-06T11:39:31.295Z,99934.56
2023-04-06T11:43:34.523Z,99929.44
2023-04-06T11:47:39.890Z,99924.97
2023-04-06T11:51:43.115Z,99910.06
2023-04-06T11:55:48.337Z,99914.59
2023-04-06T11:59:51.813Z,99920.00
2023-04-06T12:03:56.703Z,99901.69
2023-04-06T12:08:01.211Z,99895.63
2023-04-06T12:12:06.660Z,99872.88
2023-04-06T12:16:09.955Z,99899.19
2023-04-06T12:20:25.937Z,99886.84
2023-04-06T12:24:31.031Z,99883.31
2023-04-06T12:28:34.241Z,99867.44
2023-04-06T12:32:37.471Z,99871.88
2023-04-06T12:36:42.193Z,99871.03
2023-04-06T12:40:45.613Z,99853.47
2023-04-06T12:44:48.851Z,99858.66
2023-04-06T12:48:54.686Z,99867.41
2023-04-06T12:52:59.409Z,99848.06
2023-04-06T12:57:03.119Z,99848.06
2023-04-06T13:01:09.228Z,99857.72
2023-04-06T13:05:12.854Z,99853.41
2023-04-06T13:09:17.534Z,99855.19
2023-04-06T13:13:25.384Z,99842.94
2023-04-06T13:17:29.832Z,99842.09
2023-04-06T13:21:33.134Z,99833.34
2023-04-06T13:25:37.767Z,99828.94
2023-04-06T13:29:41.141Z,99821.03
2023-04-06T13:33:44.373Z,99820.13
2023-04-06T13:37:47.608Z,99821.91
2023-04-06T13:41:52.312Z,99821.06
2023-04-06T13:45:59.195Z,99816.66
2023-04-06T13:50:02.546Z,99807.03
2023-04-06T13:54:07.269Z,99808.81
2023-04-06T13:58:11.868Z,99801.78
2023-04-06T14:02:14.998Z,99816.69
2023-04-06T14:06:30.545Z,99804.34
2023-04-06T14:10:41.914Z,99800.00
2023-04-06T14:14:46.402Z,99811.41
2023-04-06T14:18:49.474Z,99799.13
2023-04-06T14:22:53.653Z,99799.13
2023-04-06T14:26:57.045Z,99802.59
2023-04-06T14:31:03.911Z,99811.41
2023-04-06T14:35:09.461Z,99807.88
2023-04-06T14:39:12.772Z,99800.81
2023-04-06T14:43:16.175Z,99814.03
2023-04-06T14:47:22.584Z,99812.25
2023-04-06T14:51:26.671Z,99806.97
2023-04-06T14:55:29.724Z,99802.59
2023-04-06T14:59:35.893Z,99806.09
2023-04-06T15:03:42.461Z,99803.47
2023-04-06T15:07:45.962Z,99805.25
2023-04-06T15:11:49.227Z,99809.59
2023-04-06T15:15:53.491Z,99797.31
2023-04-06T15:19:57.965Z,99803.44
2023-04-06T15:24:01.060Z,99804.34
2023-04-06T15:28:04.216Z,99809.59
2023-04-06T15:32:07.296Z,99799.97
2023-04-06T15:36:25.115Z,99807.03
2023-04-06T15:40:28.254Z,99809.63
2023-04-06T15:44:31.573Z,99807.84
2023-04-06T15:48:34.979Z,99813.13
2023-04-06T15:52:40.052Z,99817.47
2023-04-06T15:56:43.331Z,99818.34
2023-04-06T16:00:46.551Z,99807.81
2023-04-06T16:04:49.728Z,99816.59
2023-04-06T16:08:54.676Z,99813.94
2023-04-06T16:12:57.692Z,99816.56
2023-04-06T16:17:00.952Z,99820.06
2023-04-06T16:21:04.180Z,99819.16
2023-04-06T16:25:11.880Z,99820.00
2023-04-06T16:29:16.991Z,99822.59
2023-04-06T16:33:20.159Z,99816.44
2023-04-06T16:37:23.187Z,99809.41
2023-04-06T16:41:31.049Z,99823.41
2023-04-06T16:45:34.304Z,99823.38
2023-04-06T16:49:37.403Z,99822.47
2023-04-06T16:53:40.804Z,99827.72
2023-04-06T16:57:45.519Z,99830.31
2023-04-06T17:01:48.615Z,99833.81
2023-04-06T17:05:51.810Z,99831.16
2023-04-06T17:09:54.835Z,99829.38
2023-04-06T17:13:59.249Z,99839.91
2023-04-06T17:18:02.436Z,99829.38
2023-04-06T17:22:05.656Z,99832.84
2023-04-06T17:26:09.551Z,99835.47
2023-04-06T17:30:17.045Z,99836.28
2023-04-06T17:34:21.321Z,99836.25
2023-04-06T17:38:24.409Z,99844.13
2023-04-06T17:42:27.618Z,99844.13
2023-04-06T17:46:32.657Z,99850.22
2023-04-06T17:50:39.006Z,99853.69
2023-04-06T17:54:42.125Z,99848.44
2023-04-06T17:58:45.527Z,99853.66
2023-04-06T18:02:49.967Z,99866.78
2023-04-06T18:06:53.244Z,99865.84
2023-04-06T18:10:56.443Z,99860.59
2023-04-06T18:14:59.523Z,99865.81
2023-04-06T18:19:04.919Z,99866.66
2023-04-06T18:23:08.013Z,99863.09
2023-04-06T18:27:11.160Z,99866.56
2023-04-06T18:31:14.617Z,99880.56
2023-04-06T18:35:19.117Z,99873.50
2023-04-06T18:39:22.160Z,99885.72
2023-04-06T18:43:25.418Z,99883.97
2023-04-06T18:47:28.636Z,99890.00
2023-04-06T18:51:33.472Z,99881.22
2023-04-06T18:55:36.570Z,99891.69
2023-04-06T18:59:39.617Z,99893.44
2023-04-06T19:03:42.863Z,99899.50
2023-04-06T19:07:52.395Z,99902.03
2023-04-06T19:11:55.842Z,99894.16
2023-04-06T19:15:58.881Z,99897.63
2023-04-06T19:20:02.869Z,99895.88
2023-04-06T19:24:07.854Z,99894.06
2023-04-06T19:28:10.956Z,99894.00
2023-04-06T19:32:16.185Z,99893.13
2023-04-06T19:36:19.621Z,99899.25
2023-04-06T19:40:24.169Z,99905.38
2023-04-06T19:44:27.376Z,99901.84
2023-04-06T19:48:30.745Z,99898.28
2023-04-06T19:52:33.840Z,99893.00
2023-04-06T19:56:39.625Z,99900.78
2023-04-06T20:00:42.800Z,99893.78
2023-04-06T20:04:46.161Z,99885.00
2023-04-06T20:08:49.521Z,99891.09
2023-04-06T20:12:53.947Z,99894.59
2023-04-06T20:16:57.192Z,99895.44
2023-04-06T20:21:00.391Z,99897.16
2023-04-06T20:25:03.456Z,99892.72
2023-04-06T20:29:08.115Z,99899.72
2023-04-06T20:33:11.253Z,99901.44
2023-04-06T20:37:14.515Z,99895.31
2023-04-06T20:41:17.703Z,99900.53
2023-04-06T20:45:22.151Z,99894.34
2023-04-06T20:49:25.379Z,99891.66
2023-04-06T20:53:28.451Z,99893.44
2023-04-06T20:57:32.156Z,99886.41
2023-04-06T21:01:37.086Z,99891.59
2023-04-06T21:05:40.098Z,99884.56
2023-04-06T21:09:43.431Z,99888.03
2023-04-06T21:13:46.740Z,99889.75
2023-04-06T21:17:51.233Z,99881.00
2023-04-06T21:21:54.365Z,99890.53
2023-04-06T21:25:57.975Z,99886.13
2023-04-06T21:30:00.979Z,99891.38
2023-04-06T21:34:09.913Z,99890.44
2023-04-06T21:38:13.334Z,99886.97
2023-04-06T21:42:16.372Z,99886.09
2023-04-06T21:46:19.377Z,99877.31
2023-04-06T21:50:24.047Z,99876.38
2023-04-06T21:54:27.121Z,99873.75
2023-04-06T21:58:30.175Z,99873.66
2023-04-06T22:02:34.119Z,99878.00
2023-04-06T22:06:39.319Z,99877.97
2023-04-06T22:10:42.554Z,99879.72
2023-04-06T22:14:45.613Z,99872.72
2023-04-06T22:18:48.597Z,99872.69
2023-04-06T22:22:53.085Z,99874.47
2023-04-06T22:26:56.665Z,99871.88
2023-04-06T22:30:59.738Z,99871.00
2023-04-06T22:35:02.943Z,99864.94
2023-04-06T22:39:07.407Z,99874.50
2023-04-06T22:43:10.535Z,99870.19
2023-04-06T22:47:14.457Z,99865.78
2023-04-06T22:51:17.669Z,99869.28
2023-04-06T22:55:22.377Z,99871.00
2023-04-06T22:59:25.557Z,99857.81
2023-04-06T23:03:28.726Z,99861.19
2023-04-06T23:07:32.815Z,99854.16
2023-04-06T23:11:37.611Z,99857.50
2023-04-06T23:15:40.681Z,99853.09
2023-04-06T23:19:43.682Z,99852.16
2023-04-06T23:23:46.711Z,99851.22
2023-04-06T23:27:52.333Z,99847.75
2023-04-06T23:31:55.474Z,99841.56
2023-04-06T23:35:58.544Z,99847.63
2023-04-06T23:40:01.974Z,99843.19
2023-04-06T23:44:06.665Z,99846.63
2023-04-06T23:48:09.904Z,99844.84
2023-04-06T23:52:13.052Z,99835.25
2023-04-06T23:56:16.209Z,99835.25
